Time;durP1;ratioP1;P1;durP2;ratioP2;P2;SDS_P1;SDS_P2;PMS_P1;PMS_P2;Temp;Humidity;BMP_temperature;BMP_pressure;BME280_temperature;BME280_humidity;BME280_pressure;Samples;Min_cycle;Max_cycle;Signal;HPM_P1;HPM_P2
2024/04/16 00:02:18;;;;;;;2.00;1.70;;;;;;;11.56;69.39;97597.33;105582;1257;72681;-24
2024/04/16 00:04:46;;;;;;;1.60;1.00;;;;;;;11.34;69.98;97587.48;105503;1259;61346;-24
2024/04/16 00:07:13;;;;;;;2.50;1.90;;;;;;;11.83;69.35;97574.07;105589;1254;61231;-24
2024/04/16 00:09:41;;;;;;;3.00;1.80;;;;;;;12.38;67.62;97594.54;105448;1259;73403;-24
2024/04/16 00:12:08;;;;;;;5.40;2.20;;;;;;;12.49;67.13;97622.92;105505;1254;74465;-24
2024/04/16 00:14:49;;;;;;;2.10;1.40;;;;;;;12.19;67.76;97646.25;105569;1254;71496;-24
2024/04/16 00:17:17;;;;;;;2.30;1.40;;;;;;;11.97;68.08;97660.86;105430;1259;61326;-23
2024/04/16 00:19:45;;;;;;;3.40;1.80;;;;;;;11.76;68.84;97677.98;105322;1254;61167;-23
2024/04/16 00:22:12;;;;;;;1.90;1.00;;;;;;;11.54;69.64;97698.54;105583;1258;73395;-23
2024/04/16 00:24:40;;;;;;;2.00;1.30;;;;;;;12.04;68.72;97707.98;105440;1254;74272;-24
2024/04/16 00:27:07;;;;;;;2.40;1.20;;;;;;;12.61;66.95;97711.41;105329;1254;71087;-24
2024/04/16 00:29:35;;;;;;;1.70;1.20;;;;;;;12.55;66.93;97703.64;105539;1254;61439;-24
2024/04/16 00:32:03;;;;;;;3.70;2.00;;;;;;;12.17;67.82;97698.77;105500;1253;61676;-23
2024/04/16 00:34:31;;;;;;;2.30;1.50;;;;;;;11.96;68.71;97685.98;105309;1259;74694;-23
2024/04/16 00:36:58;;;;;;;4.10;1.90;;;;;;;11.81;69.00;97676.25;105615;1254;73281;-23
2024/04/16 00:39:26;;;;;;;1.70;1.10;;;;;;;11.69;70.02;97675.03;105650;1257;72606;-23
2024/04/16 00:41:54;;;;;;;3.60;1.90;;;;;;;12.32;68.43;97671.05;105592;1255;62125;-23
2024/04/16 00:44:23;;;;;;;2.70;2.00;;;;;;;12.59;67.55;97661.94;105691;1254;61302;-23
2024/04/16 00:46:50;;;;;;;4.50;1.80;;;;;;;12.55;67.19;97644.79;105490;1260;72956;-23
2024/04/16 00:49:18;;;;;;;1.60;1.10;;;;;;;12.37;67.41;97631.90;105867;1259;73508;-23
2024/04/16 00:51:45;;;;;;;2.70;1.50;;;;;;;11.97;68.19;97596.46;105282;1260;73134;-23
2024/04/16 00:54:13;;;;;;;3.50;2.00;;;;;;;11.89;69.67;97575.33;105272;1255;61429;-23
2024/04/16 00:56:41;;;;;;;2.60;1.60;;;;;;;12.34;68.57;97573.20;105442;1259;61250;-23
2024/04/16 00:59:08;;;;;;;2.30;1.60;;;;;;;12.38;67.99;97569.88;105625;1258;74623;-23
2024/04/16 01:01:36;;;;;;;3.50;1.80;;;;;;;12.22;68.02;97567.91;105425;1259;74315;-23
2024/04/16 01:04:04;;;;;;;1.80;1.50;;;;;;;11.96;68.60;97562.70;105506;1254;71487;-23
2024/04/16 01:06:32;;;;;;;1.60;0.80;;;;;;;11.61;69.80;97559.09;105459;1255;61425;-23
2024/04/16 01:08:59;;;;;;;2.70;1.60;;;;;;;11.65;70.81;97551.84;105508;1260;61215;-23
2024/04/16 01:11:28;;;;;;;1.80;1.40;;;;;;;12.08;69.14;97541.23;105613;1259;74572;-23
2024/04/16 01:13:56;;;;;;;2.40;1.60;;;;;;;12.05;69.33;97515.50;105683;1254;74397;-23
2024/04/16 01:16:23;;;;;;;2.80;1.50;;;;;;;11.81;69.80;97504.80;105696;1260;72667;-23
2024/04/16 01:18:51;;;;;;;4.30;1.60;;;;;;;11.58;70.70;97515.98;105675;1258;61345;-23
2024/04/16 01:21:19;;;;;;;3.40;1.20;;;;;;;11.54;71.32;97514.14;105545;1259;61216;-23
2024/04/16 01:23:46;;;;;;;2.20;1.10;;;;;;;12.10;69.99;97501.41;105514;1254;74781;-23
2024/04/16 01:26:14;;;;;;;1.10;1.00;;;;;;;12.23;68.99;97498.92;105436;1259;72463;-23
2024/04/16 01:28:41;;;;;;;2.50;1.10;;;;;;;12.03;69.37;97495.52;105267;1257;72681;-24
2024/04/16 01:31:09;;;;;;;2.30;1.50;;;;;;;11.75;70.14;97504.18;105480;1260;61355;-23
2024/04/16 01:33:37;;;;;;;3.60;1.10;;;;;;;11.55;70.95;97510.52;105511;1253;61224;-23
2024/04/16 01:36:05;;;;;;;1.50;1.20;;;;;;;11.61;71.49;97500.72;105622;1259;74587;-23
2024/04/16 01:38:32;;;;;;;2.30;1.90;;;;;;;12.22;69.63;97497.94;105740;1259;74427;-23
2024/04/16 01:41:04;;;;;;;2.30;1.40;;;;;;;12.41;69.06;97491.80;105693;1254;71519;-23
2024/04/16 01:43:31;;;;;;;1.90;1.20;;;;;;;12.23;68.85;97488.99;105527;1254;61436;-23
2024/04/16 01:45:59;;;;;;;1.90;1.30;;;;;;;11.99;69.46;97485.57;105533;1260;61227;-23
2024/04/16 01:48:27;;;;;;;1.20;0.90;;;;;;;11.70;70.81;97480.61;105623;1254;74631;-23
2024/04/16 01:50:54;;;;;;;2.90;1.70;;;;;;;12.10;70.13;97464.31;105671;1254;74920;-23
2024/04/16 01:53:22;;;;;;;4.40;2.00;;;;;;;12.51;68.62;97458.34;105533;1260;72720;-23
2024/04/16 01:55:49;;;;;;;1.40;1.00;;;;;;;12.50;68.53;97453.26;105600;1259;61320;-24
2024/04/16 01:58:17;;;;;;;3.10;1.40;;;;;;;12.27;68.95;97444.15;105619;1258;61218;-23
2024/04/16 02:00:44;;;;;;;2.00;1.40;;;;;;;12.08;69.40;97450.80;105527;1261;74590;-23
2024/04/16 02:03:12;;;;;;;0.90;0.60;;;;;;;11.86;70.15;97458.61;105640;1260;74488;-23
2024/04/16 02:05:40;;;;;;;3.20;1.90;;;;;;;12.35;69.67;97458.40;105493;1259;71386;-23
2024/04/16 02:08:08;;;;;;;5.60;2.30;;;;;;;12.84;68.18;97444.96;105383;1259;61435;-23
2024/04/16 02:10:35;;;;;;;9.90;5.00;;;;;;;12.87;67.98;97437.98;105544;1254;61289;-23
2024/04/16 02:13:03;;;;;;;9.40;4.60;;;;;;;12.67;68.10;97432.99;105345;1259;74659;-23
2024/04/16 02:15:31;;;;;;;3.00;2.30;;;;;;;12.41;68.88;97408.80;105538;1259;74395;-23
2024/04/16 02:17:58;;;;;;;2.40;2.00;;;;;;;12.04;70.15;97379.27;105432;1257;71436;-23
2024/04/16 02:20:26;;;;;;;6.30;1.70;;;;;;;12.44;69.77;97360.27;105546;1259;61261;-23
2024/04/16 02:22:54;;;;;;;2.60;2.20;;;;;;;12.73;68.63;97376.08;105467;1258;61212;-24
2024/04/16 02:25:22;;;;;;;2.40;1.40;;;;;;;12.78;68.37;97395.35;105487;1254;74693;-23
2024/04/16 02:27:49;;;;;;;2.20;1.90;;;;;;;12.60;68.73;97406.27;105587;1260;74449;-23
2024/04/16 02:30:17;;;;;;;3.00;1.70;;;;;;;12.45;69.16;97419.30;105439;1254;72717;-23
2024/04/16 02:32:44;;;;;;;3.50;1.20;;;;;;;12.25;69.87;97422.86;105449;1259;61314;-23
2024/04/16 02:35:12;;;;;;;4.60;1.70;;;;;;;12.86;69.54;97425.29;105504;1255;61316;-23
2024/04/16 02:37:40;;;;;;;2.60;1.60;;;;;;;13.51;67.74;97428.69;105483;1254;74717;-23
2024/04/16 02:40:08;;;;;;;2.00;1.80;;;;;;;13.63;66.77;97436.84;105266;1258;74419;-24
2024/04/16 02:42:35;;;;;;;4.10;1.70;;;;;;;13.49;66.70;97433.02;105411;1263;72697;-23
2024/04/16 02:45:03;;;;;;;2.80;1.80;;;;;;;13.30;67.03;97435.64;105279;1260;61352;-23
2024/04/16 02:47:31;;;;;;;2.60;1.70;;;;;;;13.06;67.17;97426.73;105709;1258;61244;-23
2024/04/16 02:49:58;;;;;;;1.90;1.00;;;;;;;12.69;68.37;97423.25;105606;1258;73770;-24
2024/04/16 02:52:26;;;;;;;2.10;1.00;;;;;;;13.09;68.52;97421.15;105559;1254;74342;-24
2024/04/16 02:54:55;;;;;;;2.90;1.40;;;;;;;13.49;67.08;97420.17;105467;1259;70710;-23
2024/04/16 02:57:23;;;;;;;2.80;1.70;;;;;;;13.43;67.06;97426.46;105491;1259;61338;-23
2024/04/16 02:59:50;;;;;;;2.70;1.40;;;;;;;13.24;67.55;97437.19;105471;1259;61225;-23
2024/04/16 03:02:18;;;;;;;1.60;1.50;;;;;;;13.04;68.00;97439.17;105483;1259;74644;-23
2024/04/16 03:04:46;;;;;;;3.70;1.60;;;;;;;12.76;68.77;97438.62;105550;1260;72677;-24
2024/04/16 03:07:14;;;;;;;1.90;1.40;;;;;;;12.58;70.07;97433.85;105286;1261;71475;-23
2024/04/16 03:09:41;;;;;;;2.30;1.80;;;;;;;13.28;68.59;97425.39;105516;1255;61291;-24
2024/04/16 03:12:09;;;;;;;2.30;1.80;;;;;;;13.64;67.26;97420.71;105531;1259;61211;-24
2024/04/16 03:14:36;;;;;;;5.50;1.90;;;;;;;13.56;67.06;97419.13;105655;1260;74664;-23
2024/04/16 03:17:04;;;;;;;3.10;1.80;;;;;;;13.34;67.17;97407.48;105375;1259;74472;-23
2024/04/16 03:19:32;;;;;;;1.40;1.30;;;;;;;13.00;67.84;97402.30;105523;1268;71403;-23
2024/04/16 03:21:59;;;;;;;2.90;1.20;;;;;;;12.62;69.21;97401.75;105487;1259;61330;-23
2024/04/16 03:24:27;;;;;;;2.50;1.70;;;;;;;12.90;69.15;97400.09;105436;1256;61957;-23
2024/04/16 03:26:55;;;;;;;2.60;1.80;;;;;;;13.36;67.66;97404.60;105604;1259;74753;-23
2024/04/16 03:29:22;;;;;;;3.90;2.50;;;;;;;13.30;67.21;97399.38;105680;1260;74784;-23
2024/04/16 03:31:50;;;;;;;2.70;1.80;;;;;;;13.06;67.81;97403.92;105590;1260;72709;-23
2024/04/16 03:34:17;;;;;;;4.00;1.80;;;;;;;12.76;68.58;97408.41;105460;1259;61305;-23
2024/04/16 03:36:45;;;;;;;3.40;1.40;;;;;;;12.45;69.90;97410.29;105547;1254;61345;-23
2024/04/16 03:39:12;;;;;;;3.30;1.50;;;;;;;12.89;69.53;97414.09;105467;1259;74666;-23
2024/04/16 03:41:40;;;;;;;3.40;1.80;;;;;;;13.29;68.19;97414.52;105463;1261;74465;-23
2024/04/16 03:44:07;;;;;;;2.10;1.80;;;;;;;13.27;67.94;97412.98;105434;1258;72683;-23
2024/04/16 03:46:35;;;;;;;2.20;1.80;;;;;;;13.16;68.28;97425.10;105271;1254;61317;-23
2024/04/16 03:49:02;;;;;;;4.20;1.80;;;;;;;12.95;68.92;97426.80;105506;1260;62698;-23
2024/04/16 03:51:30;;;;;;;3.20;1.10;;;;;;;12.65;70.07;97424.39;105480;1254;74662;-23
2024/04/16 03:53:57;;;;;;;4.50;2.10;;;;;;;13.14;69.50;97426.16;105467;1260;73424;-23
2024/04/16 03:56:25;;;;;;;5.00;1.60;;;;;;;13.56;68.02;97419.50;105441;1257;72738;-23
2024/04/16 03:59:15;;;;;;;5.30;2.10;;;;;;;13.55;67.96;97412.72;105487;1254;61311;-23
2024/04/16 04:01:43;;;;;;;3.40;2.10;;;;;;;13.30;68.71;97421.73;105707;1258;61233;-23
2024/04/16 04:04:13;;;;;;;3.70;2.10;;;;;;;13.09;69.46;97427.17;105724;1259;74693;-23
2024/04/16 04:06:42;;;;;;;3.90;1.50;;;;;;;12.83;70.88;97421.08;105676;1258;74479;-24
2024/04/16 04:09:10;;;;;;;3.60;1.70;;;;;;;13.48;69.62;97419.75;105613;1260;72156;-23
2024/04/16 04:11:37;;;;;;;5.00;2.10;;;;;;;13.96;67.85;97420.27;105467;1257;61957;-23
2024/04/16 04:14:04;;;;;;;4.00;2.80;;;;;;;13.91;67.74;97420.62;105450;1254;61419;-23
2024/04/16 04:16:32;;;;;;;3.50;2.30;;;;;;;13.75;68.58;97412.85;105582;1253;73262;-23
2024/04/16 04:19:00;;;;;;;3.00;1.30;;;;;;;13.52;69.25;97417.75;105474;1259;74396;-23
2024/04/16 04:21:27;;;;;;;2.00;1.60;;;;;;;13.36;70.71;97423.76;105368;1260;72608;-23
2024/04/16 04:23:55;;;;;;;2.50;2.10;;;;;;;14.10;69.10;97418.26;105718;1259;61279;-23
2024/04/16 04:26:23;;;;;;;1.20;1.10;;;;;;;14.29;67.91;97414.04;105708;1260;61394;-23
2024/04/16 04:28:51;;;;;;;4.50;2.50;;;;;;;14.14;68.35;97412.97;105632;1260;73438;-23
2024/04/16 04:31:19;;;;;;;2.10;1.80;;;;;;;13.91;68.77;97410.39;105442;1254;74415;-23
2024/04/16 04:33:46;;;;;;;4.50;2.60;;;;;;;13.68;69.73;97396.31;105679;1254;72649;-23
2024/04/16 04:36:14;;;;;;;3.10;1.60;;;;;;;13.54;70.77;97391.87;105492;1260;61642;-23
2024/04/16 04:38:42;;;;;;;2.00;1.80;;;;;;;14.22;69.58;97388.20;105459;1258;61234;-23
2024/04/16 04:41:11;;;;;;;2.50;2.00;;;;;;;14.68;68.15;97381.52;105630;1259;74636;-23
2024/04/16 04:43:39;;;;;;;4.80;2.40;;;;;;;14.75;68.12;97385.00;105602;1267;74416;-23
2024/04/16 04:46:06;;;;;;;6.10;2.70;;;;;;;14.72;68.41;97383.17;105482;1259;72722;-23
2024/04/16 04:48:34;;;;;;;4.90;2.10;;;;;;;14.58;69.42;97386.32;105455;1257;61637;-23
2024/04/16 04:51:02;;;;;;;6.70;3.60;;;;;;;15.14;68.29;97390.48;105532;1253;61310;-24
2024/04/16 04:53:29;;;;;;;4.40;3.30;;;;;;;15.58;66.92;97386.67;105636;1260;74800;-24
2024/04/16 04:55:57;;;;;;;2.50;2.10;;;;;;;15.41;67.34;97391.27;105512;1260;73510;-24
2024/04/16 04:58:24;;;;;;;3.40;2.70;;;;;;;15.31;68.21;97384.45;105425;1260;71001;-24
2024/04/16 05:00:52;;;;;;;6.20;1.70;;;;;;;15.45;68.80;97369.49;105275;1256;61348;-24
2024/04/16 05:03:19;;;;;;;6.70;2.40;;;;;;;15.73;67.49;97364.23;105531;1254;61302;-25
2024/04/16 05:05:47;;;;;;;6.80;3.10;;;;;;;15.74;67.54;97366.65;105678;1259;76876;-24
2024/04/16 05:08:15;;;;;;;5.60;3.00;;;;;;;15.61;67.21;97362.66;105651;1260;74482;-25
2024/04/16 05:10:42;;;;;;;3.40;2.60;;;;;;;15.23;68.41;97364.91;105674;1260;71599;-23
2024/04/16 05:13:11;;;;;;;2.60;1.90;;;;;;;14.99;69.58;97363.84;105595;1254;61292;-25
2024/04/16 05:15:38;;;;;;;5.10;2.10;;;;;;;15.23;69.80;97365.74;105609;1254;61388;-25
2024/04/16 05:18:06;;;;;;;4.10;2.20;;;;;;;15.63;68.65;97363.67;105621;1260;72719;-25
2024/04/16 05:20:34;;;;;;;2.10;1.80;;;;;;;15.54;68.87;97362.37;105681;1254;74522;-25
2024/04/16 05:23:01;;;;;;;5.60;3.50;;;;;;;15.39;70.07;97369.80;105579;1260;72114;-25
2024/04/16 05:25:29;;;;;;;2.70;1.60;;;;;;;15.57;70.70;97367.79;105285;1254;61349;-25
2024/04/16 05:27:57;;;;;;;3.00;2.50;;;;;;;15.86;69.54;97368.38;105427;1259;61212;-25
2024/04/16 05:30:24;;;;;;;5.20;2.10;;;;;;;15.99;69.19;97372.56;101729;1260;4924752;-26
2024/04/16 05:32:53;;;;;;;5.50;2.90;;;;;;;16.10;68.92;97378.30;105321;1261;61346;-25
2024/04/16 05:35:21;;;;;;;4.10;2.60;;;;;;;16.10;69.21;97376.48;105517;1259;71427;-25
2024/04/16 05:37:49;;;;;;;4.40;2.30;;;;;;;15.90;70.10;97375.13;105692;1254;61266;-25
2024/04/16 05:40:17;;;;;;;8.80;2.40;;;;;;;16.24;69.09;97372.08;105662;1254;61238;-25
2024/04/16 05:42:44;;;;;;;3.10;2.10;;;;;;;16.74;67.17;97375.08;105751;1255;76805;-25
2024/04/16 05:45:12;;;;;;;4.40;2.10;;;;;;;16.96;66.14;97376.73;105687;1255;75073;-25
2024/04/16 05:47:40;;;;;;;5.20;2.20;;;;;;;16.86;66.28;97375.30;105653;1259;72840;-25
2024/04/16 05:50:08;;;;;;;2.80;1.50;;;;;;;16.71;66.76;97378.20;105694;1254;61342;-25
2024/04/16 05:52:36;;;;;;;8.40;1.90;;;;;;;16.87;66.67;97369.60;105624;1260;61267;-25
2024/04/16 05:55:05;;;;;;;5.80;1.70;;;;;;;17.24;65.18;97378.50;105457;1258;73595;-25
2024/04/16 05:57:33;;;;;;;3.40;2.10;;;;;;;17.02;65.85;97374.21;105364;1260;76719;-25
2024/04/16 06:00:00;;;;;;;2.80;1.10;;;;;;;17.05;66.05;97370.31;105516;1254;72677;-25
2024/04/16 06:02:31;;;;;;;3.40;1.90;;;;;;;17.01;66.35;97369.98;105430;1260;61247;-26
2024/04/16 06:04:58;;;;;;;8.80;2.10;;;;;;;16.94;66.89;97367.71;105456;1254;61286;-26
2024/04/16 06:07:27;;;;;;;3.80;1.50;;;;;;;17.57;65.12;97368.51;105444;1260;73626;-26
2024/04/16 06:09:55;;;;;;;14.20;1.90;;;;;;;17.46;64.52;97352.70;105474;1254;73476;-26
2024/04/16 06:12:22;;;;;;;6.80;1.90;;;;;;;17.35;64.65;97351.34;105286;1257;72723;-27
2024/04/16 06:14:50;;;;;;;3.50;1.80;;;;;;;17.40;64.64;97357.39;105296;1261;61247;-27
2024/04/16 06:17:17;;;;;;;2.00;1.00;;;;;;;17.40;65.42;97353.67;105648;1254;61230;-27
2024/04/16 06:19:45;;;;;;;3.20;1.70;;;;;;;17.75;65.19;97358.89;105668;1260;73969;-27
2024/04/16 06:22:13;;;;;;;4.30;1.70;;;;;;;18.20;63.18;97351.15;105754;1254;73935;-27
2024/04/16 06:24:40;;;;;;;3.20;1.70;;;;;;;18.37;62.31;97356.01;105635;1257;72815;-28
2024/04/16 06:27:08;;;;;;;12.90;2.30;;;;;;;18.46;62.30;97357.19;105658;1254;61320;-27
2024/04/16 06:29:37;;;;;;;6.20;1.90;;;;;;;18.25;62.61;97362.80;105639;1253;61234;-27
2024/04/16 06:32:05;;;;;;;3.20;1.70;;;;;;;18.19;62.65;97371.43;105508;1254;74878;-27
2024/04/16 06:34:33;;;;;;;4.20;1.30;;;;;;;17.92;63.81;97370.91;105524;1254;73678;-28
2024/04/16 06:37:00;;;;;;;5.30;1.40;;;;;;;18.14;62.02;97357.48;105360;1258;74874;-29
2024/04/16 06:39:28;;;;;;;5.10;1.40;;;;;;;18.50;60.60;97348.90;105458;1260;61755;-28
2024/04/16 06:42:00;;;;;;;4.20;1.10;;;;;;;18.25;61.12;97351.11;105468;1260;62338;-28
2024/04/16 06:44:28;;;;;;;5.30;1.40;;;;;;;18.16;61.15;97350.35;105506;1260;73384;-27
2024/04/16 06:46:56;;;;;;;7.30;1.40;;;;;;;18.17;61.19;97361.18;105448;1254;75622;-27
2024/04/16 06:49:23;;;;;;;3.80;1.50;;;;;;;18.00;61.81;97361.33;105292;1258;72880;-27
2024/04/16 06:51:51;;;;;;;3.50;1.20;;;;;;;17.94;62.27;97369.29;105441;1255;61320;-27
2024/04/16 06:54:18;;;;;;;3.00;1.00;;;;;;;18.01;62.67;97374.23;105480;1254;61680;-27
2024/04/16 06:56:46;;;;;;;6.40;1.70;;;;;;;18.47;60.81;97364.72;105470;1259;75509;-27
2024/04/16 06:59:14;;;;;;;4.10;1.60;;;;;;;18.87;59.28;97350.39;105475;1255;73499;-27
2024/04/16 07:01:42;;;;;;;2.80;1.40;;;;;;;19.01;58.85;97359.86;105495;1261;70686;-27
2024/04/16 07:04:11;;;;;;;6.60;1.40;;;;;;;18.74;58.77;97352.30;105572;1260;61311;-28
2024/04/16 07:06:38;;;;;;;3.20;1.30;;;;;;;18.43;59.62;97364.41;105571;1258;62265;-27
2024/04/16 07:09:06;;;;;;;6.40;1.40;;;;;;;18.31;60.01;97361.36;105351;1259;77373;-27
2024/04/16 07:11:35;;;;;;;4.90;1.70;;;;;;;18.26;60.28;97356.98;105581;1259;76773;-27
2024/04/16 07:14:02;;;;;;;6.10;1.50;;;;;;;18.16;60.37;97345.73;105420;1260;75599;-27
2024/04/16 07:16:31;;;;;;;1.90;1.20;;;;;;;18.47;59.48;97348.73;105572;1259;62888;-27
2024/04/16 07:18:59;;;;;;;4.00;1.70;;;;;;;18.64;58.49;97352.13;105523;1261;62681;-27
2024/04/16 07:21:26;;;;;;;4.70;1.50;;;;;;;18.45;58.78;97359.46;105341;1260;73708;-28
2024/04/16 07:23:54;;;;;;;2.70;1.10;;;;;;;18.50;59.29;97367.36;105462;1259;73528;-28
2024/04/16 07:26:21;;;;;;;7.10;1.50;;;;;;;18.56;59.19;97371.34;105376;1254;71834;-28
2024/04/16 07:28:49;;;;;;;10.10;1.70;;;;;;;18.43;59.59;97356.39;105630;1254;61387;-28
2024/04/16 07:31:18;;;;;;;5.20;1.70;;;;;;;18.58;60.05;97353.20;105490;1260;61253;-28
2024/04/16 07:33:46;;;;;;;8.50;1.50;;;;;;;18.57;59.38;97354.71;105547;1254;75214;-28
2024/04/16 07:36:14;;;;;;;2.80;1.80;;;;;;;18.35;59.36;97354.42;105600;1259;74505;-27
2024/04/16 07:38:42;;;;;;;3.90;1.60;;;;;;;18.88;58.40;97359.66;105558;1254;72251;-28
2024/04/16 07:41:10;;;;;;;4.00;1.50;;;;;;;18.95;57.50;97356.02;105642;1257;61339;-28
2024/04/16 07:43:38;;;;;;;7.30;2.20;;;;;;;18.90;57.64;97356.27;105545;1259;61250;-32
2024/04/16 07:46:05;;;;;;;2.50;1.30;;;;;;;18.91;57.61;97356.42;105466;1254;75925;-27
2024/04/16 07:48:33;;;;;;;1.90;1.40;;;;;;;18.75;58.35;97353.36;105495;1254;74558;-27
2024/04/16 07:51:01;;;;;;;7.00;2.00;;;;;;;18.72;58.26;97359.18;105517;1254;72842;-27
2024/04/16 07:53:29;;;;;;;4.90;1.50;;;;;;;18.57;59.48;97364.05;105485;1254;61361;-27
2024/04/16 07:55:57;;;;;;;3.80;1.30;;;;;;;18.39;59.79;97367.63;105721;1254;61243;-27
2024/04/16 07:58:24;;;;;;;2.00;1.00;;;;;;;18.84;58.66;97366.66;105373;1254;74773;-28
2024/04/16 08:00:54;;;;;;;3.90;1.40;;;;;;;19.19;57.66;97362.02;105444;1254;72508;-27
2024/04/16 08:03:22;;;;;;;4.30;1.60;;;;;;;19.19;57.07;97369.23;105498;1259;70790;-27
2024/04/16 08:05:50;;;;;;;6.90;2.20;;;;;;;18.91;57.77;97363.24;105428;1259;61314;-27
2024/04/16 08:08:17;;;;;;;4.00;1.70;;;;;;;18.69;58.34;97361.17;105495;1254;61348;-27
2024/04/16 08:10:53;;;;;;;3.30;1.50;;;;;;;18.45;58.78;97355.29;105468;1260;73644;-27
2024/04/16 08:13:22;;;;;;;2.30;1.30;;;;;;;18.31;58.79;97346.57;105414;1260;76485;-28
2024/04/16 08:15:50;;;;;;;2.60;1.70;;;;;;;18.23;58.96;97350.89;105541;1259;71623;-27
2024/04/16 08:18:17;;;;;;;1.90;1.30;;;;;;;18.01;60.44;97356.93;105440;1259;61779;-27
2024/04/16 08:20:48;;;;;;;3.30;1.30;;;;;;;18.41;59.36;97352.39;105520;1253;61327;-27
2024/04/16 08:23:16;;;;;;;9.40;2.30;;;;;;;18.94;57.63;97351.91;105435;1254;74715;-28
2024/04/16 08:25:43;;;;;;;2.90;1.50;;;;;;;18.85;57.57;97358.67;105598;1254;74813;-27
2024/04/16 08:28:11;;;;;;;7.10;1.70;;;;;;;18.74;57.87;97356.05;105626;1254;74904;-27
2024/04/16 08:30:39;;;;;;;3.70;1.40;;;;;;;18.67;57.35;97356.73;105635;1254;61380;-27
2024/04/16 08:33:06;;;;;;;4.00;1.40;;;;;;;18.50;57.96;97358.60;105668;1257;61151;-27
2024/04/16 08:35:34;;;;;;;3.30;1.70;;;;;;;18.35;58.58;97351.35;105599;1254;76789;-27
2024/04/16 08:38:02;;;;;;;5.10;1.70;;;;;;;18.40;58.71;97361.86;105692;1261;76638;-27
2024/04/16 08:40:32;;;;;;;3.20;1.00;;;;;;;18.26;58.85;97360.67;105689;1257;71631;-26
2024/04/16 08:43:00;;;;;;;4.30;1.70;;;;;;;18.55;58.30;97358.38;105434;1260;61371;-27
2024/04/16 08:45:27;;;;;;;8.00;1.60;;;;;;;19.02;57.70;97364.80;105435;1253;61240;-27
2024/04/16 08:47:56;;;;;;;6.30;1.40;;;;;;;19.09;56.95;97362.33;105523;1253;75416;-27
2024/04/16 08:50:24;;;;;;;6.40;2.30;;;;;;;18.95;57.11;97356.77;105450;1254;73381;-28
2024/04/16 08:52:52;;;;;;;3.40;1.50;;;;;;;18.78;57.21;97357.20;105303;1260;71650;-27
2024/04/16 08:55:20;;;;;;;4.10;1.80;;;;;;;18.69;57.91;97359.26;105538;1260;61248;-27
2024/04/16 08:57:47;;;;;;;4.30;1.70;;;;;;;18.45;58.53;97358.32;105529;1252;61338;-27
2024/04/16 09:00:15;;;;;;;5.80;1.50;;;;;;;18.33;58.63;97354.94;105435;1254;74749;-27
2024/04/16 09:02:46;;;;;;;4.70;1.70;;;;;;;18.10;59.45;97353.48;105491;1259;74759;-27
2024/04/16 09:05:14;;;;;;;5.80;1.60;;;;;;;18.65;58.17;97362.25;105188;1260;70275;-27
2024/04/16 09:07:42;;;;;;;3.70;1.30;;;;;;;19.08;57.99;97367.95;105444;1257;61295;-27
2024/04/16 09:10:20;;;;;;;6.60;2.40;;;;;;;19.24;57.28;97370.02;105466;1254;61208;-27
2024/04/16 09:12:48;;;;;;;6.70;1.30;;;;;;;19.13;56.90;97368.13;105397;1254;75256;-27
2024/04/16 09:15:17;;;;;;;4.30;1.40;;;;;;;19.17;57.07;97371.56;105515;1260;74605;-27
2024/04/16 09:17:48;;;;;;;6.30;2.00;;;;;;;19.04;56.57;97372.31;105400;1255;73084;-27
2024/04/16 09:20:25;;;;;;;6.00;1.60;;;;;;;18.85;55.61;97364.89;105463;1254;61288;-27
2024/04/16 09:22:53;;;;;;;4.90;1.60;;;;;;;18.79;56.50;97362.30;105381;1260;61187;-27
2024/04/16 09:25:22;;;;;;;6.60;2.00;;;;;;;18.95;56.29;97365.09;105467;1259;74726;-27
2024/04/16 09:27:53;;;;;;;5.90;1.60;;;;;;;18.98;56.14;97363.95;105396;1261;74677;-28
2024/04/16 09:30:22;;;;;;;3.00;1.40;;;;;;;18.89;55.61;97357.75;105659;1261;71814;-27
2024/04/16 09:32:57;;;;;;;4.00;1.40;;;;;;;18.80;56.25;97361.09;105467;1254;61275;-27
2024/04/16 09:35:25;;;;;;;6.50;1.20;;;;;;;18.98;56.32;97377.13;105254;1254;61248;-28
2024/04/16 09:38:08;;;;;;;5.30;2.40;;;;;;;19.47;54.87;97373.58;105438;1260;73570;-27
2024/04/16 09:40:36;;;;;;;4.30;1.20;;;;;;;19.64;54.24;97368.05;105523;1254;75551;-27
2024/04/16 09:43:05;;;;;;;9.30;2.00;;;;;;;19.35;53.80;97373.00;105457;1259;71948;-27
2024/04/16 09:45:34;;;;;;;7.20;1.60;;;;;;;19.25;54.69;97376.74;105292;1253;61319;-27
2024/04/16 09:48:03;;;;;;;8.40;1.80;;;;;;;19.10;54.83;97380.81;105460;1259;61357;-26
2024/04/16 09:50:32;;;;;;;4.80;1.50;;;;;;;18.96;55.43;97379.48;105287;1260;74776;-26
2024/04/16 09:53:21;;;;;;;6.80;1.50;;;;;;;18.96;55.90;97382.56;105479;1257;74553;-27
2024/04/16 09:55:48;;;;;;;5.70;1.80;;;;;;;18.84;55.36;97380.27;105225;1257;72761;-28
2024/04/16 09:58:17;;;;;;;5.70;1.90;;;;;;;18.76;55.48;97390.30;105619;1254;61695;-27
2024/04/16 10:00:45;;;;;;;6.90;1.40;;;;;;;18.77;55.95;97392.77;105751;1259;61261;-26
2024/04/16 10:03:16;;;;;;;5.10;1.40;;;;;;;18.57;55.44;97391.98;105640;1254;74859;-27
2024/04/16 10:05:43;;;;;;;3.10;1.40;;;;;;;18.42;53.95;97395.44;105623;1260;73358;-27
2024/04/16 10:08:11;;;;;;;4.00;1.30;;;;;;;18.27;53.93;97399.02;105530;1255;72850;-27
2024/04/16 10:10:43;;;;;;;4.50;1.70;;;;;;;18.22;53.46;97395.07;105535;1254;61505;-27
2024/04/16 10:13:12;;;;;;;4.70;1.60;;;;;;;18.30;54.27;97405.31;105296;1254;61276;-27
2024/04/16 10:15:43;;;;;;;5.80;1.50;;;;;;;18.19;53.45;97410.05;105652;1254;75956;-27
2024/04/16 10:18:12;;;;;;;7.20;1.40;;;;;;;18.16;54.34;97408.95;105248;1262;76897;-28
2024/04/16 10:20:51;;;;;;;3.90;1.70;;;;;;;18.11;54.41;97403.71;105394;1254;73103;-26
2024/04/16 10:23:21;;;;;;;5.80;1.30;;;;;;;18.18;54.80;97404.74;105364;1260;61314;-26
2024/04/16 10:25:49;;;;;;;6.60;1.10;;;;;;;18.19;53.73;97400.98;105618;1254;61281;-26
2024/04/16 10:28:24;;;;;;;6.40;2.20;;;;;;;18.22;53.55;97408.01;105695;1260;73600;-26
2024/04/16 10:30:59;;;;;;;9.10;1.30;;;;;;;18.25;54.01;97404.79;105710;1260;74515;-26
2024/04/16 10:33:28;;;;;;;4.10;1.40;;;;;;;18.33;53.61;97399.16;105392;1257;71972;-26
2024/04/16 10:35:56;;;;;;;4.80;1.50;;;;;;;18.39;53.47;97401.91;105213;1262;61458;-26
2024/04/16 10:38:24;;;;;;;5.60;1.60;;;;;;;18.37;53.03;97403.42;105450;1259;61292;-26
2024/04/16 10:40:56;;;;;;;4.60;1.60;;;;;;;18.52;53.40;97401.63;105629;1254;75676;-26
2024/04/16 10:43:24;;;;;;;6.80;1.60;;;;;;;18.57;53.58;97405.31;105540;1254;73415;-26
2024/04/16 10:45:53;;;;;;;5.00;1.10;;;;;;;18.67;52.61;97404.33;105696;1256;71674;-26
2024/04/16 10:48:22;;;;;;;2.30;1.20;;;;;;;18.75;52.28;97406.77;105600;1259;62176;-26
2024/04/16 10:50:50;;;;;;;3.10;1.20;;;;;;;18.78;53.91;97409.15;105547;1254;61227;-26
2024/04/16 10:53:20;;;;;;;7.30;1.60;;;;;;;18.68;52.52;97409.76;105440;1254;75341;-26
2024/04/16 10:55:47;;;;;;;6.10;1.50;;;;;;;18.71;52.10;97413.66;105507;1254;73816;-26
2024/04/16 10:58:15;;;;;;;4.80;1.60;;;;;;;18.75;51.85;97409.98;105421;1259;72823;-26
2024/04/16 11:00:43;;;;;;;4.00;1.70;;;;;;;18.77;52.20;97409.27;105449;1254;61764;-26
2024/04/16 11:03:11;;;;;;;4.00;1.40;;;;;;;18.78;52.19;97410.40;105494;1254;61279;-26
2024/04/16 11:05:39;;;;;;;7.00;1.30;;;;;;;18.80;52.51;97408.95;105672;1258;74043;-26
2024/04/16 11:08:09;;;;;;;7.30;2.30;;;;;;;18.98;52.20;97408.37;105659;1260;75439;-26
2024/04/16 11:10:49;;;;;;;4.70;1.50;;;;;;;19.07;52.10;97401.83;105487;1254;70603;-26
2024/04/16 11:13:18;;;;;;;14.30;2.30;;;;;;;19.08;51.02;97396.84;105226;1260;61272;-26
2024/04/16 11:15:46;;;;;;;9.40;1.40;;;;;;;18.93;51.21;97396.25;105515;1254;61316;-26
2024/04/16 11:18:13;;;;;;;7.50;1.40;;;;;;;19.01;51.79;97387.25;105640;1259;73869;-27
2024/04/16 11:20:42;;;;;;;6.30;1.70;;;;;;;18.78;51.18;97384.88;105659;1254;75592;-26
2024/04/16 11:23:09;;;;;;;3.50;1.00;;;;;;;19.07;51.36;97380.29;105531;1254;71823;-26
2024/04/16 11:25:43;;;;;;;4.90;1.60;;;;;;;19.34;50.53;97377.23;105494;1254;61256;-26
2024/04/16 11:28:11;;;;;;;2.80;1.40;;;;;;;19.41;49.14;97374.11;105380;1254;61231;-26
2024/04/16 11:30:41;;;;;;;5.70;1.60;;;;;;;19.29;50.19;97376.46;105646;1259;74304;-26